Time;durP1;ratioP1;P1;durP2;ratioP2;P2;SDS_P1;SDS_P2;PMS_P1;PMS_P2;Temp;Humidity;BMP_temperature;BMP_pressure;BME280_temperature;BME280_humidity;BME280_pressure;Samples;Min_cycle;Max_cycle;Signal;HPM_P1;HPM_P2
2021/06/29 00:48:03;;;;;;;4.30;3.87;;;27.20;56.20;;;;;;4918928;29;20381;-82
2021/06/29 00:50:29;;;;;;;3.83;3.53;;;27.10;56.20;;;;;;4917067;29;20421;-82
2021/06/29 00:53:04;;;;;;;3.80;3.50;;;27.20;56.20;;;;;;4918224;29;20472;-83
2021/06/29 00:55:31;;;;;;;3.90;3.50;;;27.20;56.20;;;;;;4934269;29;20267;-83
2021/06/29 00:57:58;;;;;;;4.07;3.70;;;27.20;56.20;;;;;;4917361;29;20476;-83
2021/06/29 01:00:32;;;;;;;3.93;3.53;;;27.20;56.10;;;;;;4918284;29;20401;-82
2021/06/29 01:03:01;;;;;;;4.00;3.60;;;27.20;56.10;;;;;;4917489;29;20460;-82
2021/06/29 01:05:27;;;;;;;3.97;3.50;;;27.20;56.10;;;;;;4901710;29;20433;-83
2021/06/29 01:07:55;;;;;;;3.43;3.13;;;27.20;56.10;;;;;;4917647;29;20436;-83
2021/06/29 01:10:23;;;;;;;3.93;3.63;;;27.20;56.10;;;;;;4916963;29;20196;-83
2021/06/29 01:12:50;;;;;;;3.73;3.33;;;27.20;56.00;;;;;;4917488;29;20416;-83
2021/06/29 01:15:23;;;;;;;4.30;3.90;;;27.30;56.10;;;;;;4918784;29;20460;-83
2021/06/29 01:17:56;;;;;;;3.43;3.13;;;27.20;56.10;;;;;;4918914;29;20444;-82
2021/06/29 01:20:29;;;;;;;3.73;3.43;;;27.20;56.10;;;;;;4917228;29;20445;-82
2021/06/29 01:23:07;;;;;;;3.90;3.10;;;27.20;56.10;;;;;;4917533;29;20409;-83
2021/06/29 01:25:34;;;;;;;3.13;2.90;;;27.20;56.10;;;;;;4916322;29;20429;-83
2021/06/29 01:28:19;;;;;;;3.80;3.40;;;27.20;56.10;;;;;;4917884;29;20428;-83
2021/06/29 01:31:03;;;;;;;3.60;3.30;;;27.20;56.10;;;;;;4919501;29;20392;-82
2021/06/29 01:33:33;;;;;;;3.80;3.50;;;27.20;56.10;;;;;;4919240;29;20421;-82
2021/06/29 01:36:02;;;;;;;3.50;3.13;;;27.20;56.10;;;;;;4918036;29;20449;-83
2021/06/29 01:38:37;;;;;;;3.77;3.37;;;27.20;56.10;;;;;;4918343;29;20412;-82
2021/06/29 01:41:04;;;;;;;3.30;2.90;;;27.20;56.10;;;;;;4917112;29;20456;-83
2021/06/29 01:43:39;;;;;;;3.93;3.53;;;27.20;56.10;;;;;;4917472;29;20445;-83
2021/06/29 01:46:12;;;;;;;3.57;3.03;;;27.20;56.10;;;;;;4917754;29;20469;-83
2021/06/29 01:48:55;;;;;;;4.27;3.63;;;27.20;56.10;;;;;;4916316;29;20443;-83
2021/06/29 01:51:24;;;;;;;3.57;3.20;;;27.20;56.10;;;;;;4917851;29;20405;-83
2021/06/29 01:53:52;;;;;;;3.63;3.33;;;27.10;56.10;;;;;;4917348;29;20476;-83
2021/06/29 01:56:35;;;;;;;3.73;3.33;;;27.10;56.10;;;;;;4915170;29;20424;-83
2021/06/29 01:59:10;;;;;;;3.50;3.20;;;27.20;56.20;;;;;;4916623;29;20436;-83
2021/06/29 02:01:43;;;;;;;3.37;3.07;;;27.10;56.10;;;;;;4916609;29;20409;-83
2021/06/29 02:04:09;;;;;;;3.60;3.17;;;27.10;56.10;;;;;;4916749;29;20460;-83
2021/06/29 02:06:39;;;;;;;3.40;3.10;;;27.10;56.10;;;;;;4916116;29;20425;-83
2021/06/29 02:09:13;;;;;;;3.70;3.40;;;27.10;56.10;;;;;;4916180;29;20496;-83
2021/06/29 02:12:04;;;;;;;3.60;3.30;;;27.20;56.20;;;;;;4916993;29;20456;-83
2021/06/29 02:14:38;;;;;;;3.30;3.00;;;27.10;56.10;;;;;;4918227;29;21093;-83
2021/06/29 02:17:18;;;;;;;3.60;3.30;;;27.10;56.20;;;;;;4917977;29;20397;-83
2021/06/29 02:19:56;;;;;;;4.23;3.60;;;27.10;56.20;;;;;;4916124;29;20444;-82
2021/06/29 02:22:29;;;;;;;3.57;3.27;;;27.10;56.20;;;;;;4916785;29;20451;-83
2021/06/29 02:24:58;;;;;;;3.67;3.37;;;27.10;56.20;;;;;;4916011;29;20421;-83
2021/06/29 02:27:31;;;;;;;3.40;3.10;;;27.10;56.20;;;;;;4885113;29;20443;-82
2021/06/29 02:29:58;;;;;;;3.97;3.63;;;27.10;56.20;;;;;;4915929;29;20424;-83
2021/06/29 02:32:25;;;;;;;3.37;3.07;;;27.10;56.20;;;;;;4919035;29;20926;-83
2021/06/29 02:34:53;;;;;;;3.20;3.00;;;27.10;56.20;;;;;;4919548;29;20460;-83
2021/06/29 02:37:21;;;;;;;3.10;2.83;;;27.10;56.20;;;;;;4919889;29;20417;-83
2021/06/29 02:39:52;;;;;;;3.33;3.00;;;27.10;56.20;;;;;;4904265;29;20432;-83
2021/06/29 02:42:19;;;;;;;3.60;3.30;;;27.10;56.20;;;;;;4919824;29;20440;-83
2021/06/29 02:44:49;;;;;;;3.13;2.83;;;27.10;56.20;;;;;;4919913;29;20947;-83
2021/06/29 02:47:24;;;;;;;3.27;2.97;;;27.10;56.80;;;;;;4888264;29;20429;-83
2021/06/29 02:49:59;;;;;;;3.20;2.90;;;27.10;56.20;;;;;;4919747;29;20432;-82
2021/06/29 02:52:26;;;;;;;3.07;2.87;;;27.10;56.20;;;;;;4920233;29;20400;-83
2021/06/29 02:54:55;;;;;;;3.33;3.03;;;27.10;56.20;;;;;;4904051;29;20476;-82
2021/06/29 02:57:21;;;;;;;4.90;3.23;;;27.10;56.20;;;;;;4918655;29;20417;-82
2021/06/29 02:59:50;;;;;;;3.30;3.00;;;27.10;56.20;;;;;;4903081;29;20445;-82
2021/06/29 03:02:21;;;;;;;3.63;3.33;;;27.10;56.20;;;;;;4903640;29;20421;-82
2021/06/29 03:04:48;;;;;;;3.50;3.20;;;27.10;56.20;;;;;;4919509;29;20429;-83
2021/06/29 03:07:21;;;;;;;3.60;3.30;;;27.10;56.30;;;;;;4918609;29;20428;-83
2021/06/29 03:09:51;;;;;;;3.10;2.80;;;27.10;56.30;;;;;;4904102;29;20472;-83
2021/06/29 03:12:22;;;;;;;3.33;3.03;;;27.10;56.30;;;;;;4918893;29;20453;-83
2021/06/29 03:14:59;;;;;;;3.73;3.43;;;27.10;56.30;;;;;;4917830;29;20472;-83
2021/06/29 03:17:33;;;;;;;2.93;2.73;;;27.00;56.20;;;;;;4919969;29;20404;-83
2021/06/29 03:20:12;;;;;;;3.50;2.53;;;27.10;56.30;;;;;;4904350;29;20452;-83
2021/06/29 03:22:39;;;;;;;3.30;3.00;;;27.10;56.30;;;;;;4907039;29;20425;-82
2021/06/29 03:25:06;;;;;;;3.27;2.97;;;27.00;56.20;;;;;;4921757;29;20409;-83
2021/06/29 03:27:33;;;;;;;2.80;2.60;;;27.00;56.30;;;;;;4921692;29;20452;-83
2021/06/29 03:30:07;;;;;;;3.20;2.90;;;27.10;56.30;;;;;;4921979;29;20448;-82
2021/06/29 03:32:36;;;;;;;3.27;2.97;;;27.00;56.20;;;;;;4922348;29;20821;-82
2021/06/29 03:35:07;;;;;;;3.77;3.47;;;27.10;56.30;;;;;;4919671;29;20467;-82
2021/06/29 03:37:38;;;;;;;3.03;2.73;;;27.00;56.20;;;;;;4919204;29;20435;-82
2021/06/29 03:40:06;;;;;;;3.33;3.03;;;27.10;56.30;;;;;;4919003;29;20431;-82
2021/06/29 03:42:49;;;;;;;3.70;2.80;;;27.10;56.30;;;;;;4918685;29;20423;-82
2021/06/29 03:45:21;;;;;;;3.23;2.93;;;27.00;56.30;;;;;;4919379;29;20401;-83
2021/06/29 03:47:47;;;;;;;2.83;2.63;;;27.10;56.40;;;;;;4919585;29;20433;-84
2021/06/29 03:50:17;;;;;;;2.73;2.50;;;27.00;56.30;;;;;;4919580;29;20425;-82
2021/06/29 03:52:45;;;;;;;3.03;2.83;;;27.10;56.30;;;;;;4919353;29;20424;-82
2021/06/29 03:55:14;;;;;;;2.97;2.73;;;27.00;56.30;;;;;;4919083;29;20460;-82
2021/06/29 03:57:51;;;;;;;2.90;2.60;;;27.10;56.40;;;;;;4918089;29;20445;-82
2021/06/29 04:00:22;;;;;;;3.63;2.77;;;27.00;56.30;;;;;;4918053;29;20444;-82
2021/06/29 04:02:54;;;;;;;3.47;2.50;;;27.00;56.30;;;;;;4915995;29;20439;-83
2021/06/29 04:05:21;;;;;;;2.90;2.70;;;27.00;56.30;;;;;;4917014;29;20489;-83
2021/06/29 04:07:50;;;;;;;2.50;2.30;;;27.00;56.30;;;;;;4917807;29;20919;-83
2021/06/29 04:10:16;;;;;;;2.87;2.60;;;27.10;56.40;;;;;;4916432;29;20487;-82
2021/06/29 04:12:45;;;;;;;2.70;2.43;;;27.00;56.30;;;;;;4917664;29;20428;-87
2021/06/29 04:15:12;;;;;;;3.07;2.73;;;27.00;56.30;;;;;;4916699;29;20524;-83
2021/06/29 04:17:40;;;;;;;2.70;2.50;;;27.00;56.30;;;;;;4916096;29;20461;-82
2021/06/29 04:20:12;;;;;;;2.50;2.30;;;27.00;56.30;;;;;;4917199;29;20480;-82
2021/06/29 04:22:38;;;;;;;3.67;3.10;;;27.00;56.30;;;;;;4915815;29;20440;-83
2021/06/29 04:25:13;;;;;;;2.87;2.60;;;27.00;56.30;;;;;;4917107;29;20437;-87
2021/06/29 04:27:40;;;;;;;2.60;2.40;;;27.00;56.60;;;;;;4932115;29;20424;-82
2021/06/29 04:30:08;;;;;;;2.77;2.57;;;27.00;56.40;;;;;;4918616;29;20425;-82
2021/06/29 04:32:42;;;;;;;2.57;2.37;;;27.00;56.40;;;;;;4916405;29;20456;-83
2021/06/29 04:35:10;;;;;;;2.50;2.20;;;27.00;56.40;;;;;;4916323;29;20504;-81
2021/06/29 04:37:37;;;;;;;3.20;2.90;;;27.00;56.40;;;;;;4918485;29;20445;-81
2021/06/29 04:40:03;;;;;;;2.73;2.53;;;27.00;56.50;;;;;;4916954;29;20427;-81
2021/06/29 04:42:31;;;;;;;2.90;2.70;;;27.00;56.50;;;;;;4917180;29;20425;-81
2021/06/29 04:44:59;;;;;;;2.60;2.40;;;27.00;56.50;;;;;;4917468;29;20439;-81
2021/06/29 04:47:25;;;;;;;2.70;2.50;;;26.90;56.40;;;;;;4917012;29;20416;-81
2021/06/29 04:49:57;;;;;;;2.73;2.53;;;27.00;56.50;;;;;;4916512;29;20432;-82
2021/06/29 04:52:23;;;;;;;3.43;2.60;;;27.00;56.50;;;;;;4932501;29;20195;-82
2021/06/29 04:54:49;;;;;;;2.67;2.47;;;26.90;56.50;;;;;;4916017;29;20475;-82
2021/06/29 04:57:15;;;;;;;2.93;2.47;;;26.90;56.60;;;;;;4915432;29;20405;-82
2021/06/29 04:59:41;;;;;;;2.63;2.43;;;27.00;56.70;;;;;;4917487;29;20431;-84
2021/06/29 05:02:10;;;;;;;2.60;2.40;;;26.90;56.60;;;;;;4917825;29;20253;-81
2021/06/29 05:04:37;;;;;;;2.60;2.40;;;26.90;56.60;;;;;;4920157;29;20267;-82
2021/06/29 05:07:06;;;;;;;3.63;3.23;;;26.90;56.70;;;;;;4917185;29;20448;-82
2021/06/29 05:09:32;;;;;;;2.93;2.73;;;26.90;56.70;;;;;;4917004;29;20420;-81
2021/06/29 05:11:58;;;;;;;3.10;2.70;;;26.90;56.70;;;;;;4917805;29;20446;-80
2021/06/29 05:14:32;;;;;;;2.73;2.53;;;26.90;56.70;;;;;;4919195;29;20457;-82
2021/06/29 05:16:58;;;;;;;2.87;2.07;;;26.90;56.70;;;;;;4919148;29;20420;-81
2021/06/29 05:19:24;;;;;;;3.20;2.90;;;26.90;56.70;;;;;;4918699;29;20479;-81
2021/06/29 05:21:50;;;;;;;2.97;2.77;;;26.90;56.70;;;;;;4919058;29;20189;-81
2021/06/29 05:24:16;;;;;;;4.80;2.50;;;26.90;56.70;;;;;;4919304;29;20457;-82
2021/06/29 05:26:41;;;;;;;2.83;2.50;;;26.90;56.70;;;;;;4918461;29;20427;-82
2021/06/29 05:29:11;;;;;;;2.67;2.47;;;27.00;56.70;;;;;;4915870;29;20184;-82
2021/06/29 05:31:37;;;;;;;2.57;2.10;;;26.90;56.60;;;;;;4916229;29;20203;-82
2021/06/29 05:34:04;;;;;;;3.10;2.27;;;26.90;56.60;;;;;;4915298;29;20475;-82
2021/06/29 05:36:30;;;;;;;2.60;2.40;;;26.90;56.60;;;;;;4917496;29;20176;-82
2021/06/29 05:38:55;;;;;;;4.10;2.20;;;26.90;56.60;;;;;;4917443;29;20421;-82
2021/06/29 05:41:52;;;;;;;4.03;2.80;;;26.90;56.60;;;;;;4917017;29;20197;-82
2021/06/29 05:44:18;;;;;;;2.57;2.30;;;26.90;56.60;;;;;;4916589;29;20278;-82
2021/06/29 05:46:53;;;;;;;3.13;2.23;;;26.90;56.60;;;;;;4916604;29;20420;-83
2021/06/29 05:49:19;;;;;;;2.73;2.53;;;26.90;56.60;;;;;;4915724;29;20428;-85
2021/06/29 05:52:25;;;;;;;2.27;2.07;;;26.90;56.60;;;;;;4919329;29;20429;-83
2021/06/29 05:54:51;;;;;;;3.00;2.60;;;26.90;56.60;;;;;;4918095;29;20464;-83
2021/06/29 05:57:18;;;;;;;4.23;2.07;;;26.90;56.60;;;;;;4916686;29;20405;-83
2021/06/29 05:59:52;;;;;;;2.43;2.07;;;26.90;56.60;;;;;;4917323;29;20477;-82
2021/06/29 06:02:18;;;;;;;2.40;2.20;;;26.90;56.60;;;;;;4916859;29;20429;-82
2021/06/29 06:04:44;;;;;;;2.37;2.17;;;26.90;56.60;;;;;;4933068;29;20461;-82
2021/06/29 06:07:19;;;;;;;2.97;2.30;;;26.90;56.60;;;;;;4919134;29;20424;-82
2021/06/29 06:09:45;;;;;;;2.93;2.73;;;26.90;56.60;;;;;;4920562;29;20183;-82
2021/06/29 06:12:11;;;;;;;2.37;2.07;;;26.90;56.60;;;;;;4921914;29;20484;-83
2021/06/29 06:14:38;;;;;;;3.10;2.70;;;26.90;56.60;;;;;;4919845;29;20212;-82
2021/06/29 06:17:06;;;;;;;4.80;2.43;;;26.90;56.60;;;;;;4920272;29;20412;-82
2021/06/29 06:19:32;;;;;;;2.60;2.40;;;26.90;56.60;;;;;;4919801;29;20440;-82
2021/06/29 06:22:19;;;;;;;3.00;2.30;;;26.90;56.70;;;;;;4919109;29;20425;-82
2021/06/29 06:24:47;;;;;;;2.43;2.23;;;26.90;56.60;;;;;;4919843;29;20511;-82
2021/06/29 06:27:14;;;;;;;2.50;2.30;;;26.90;56.70;;;;;;4918562;29;20420;-83
2021/06/29 06:29:48;;;;;;;3.10;2.70;;;27.00;56.70;;;;;;4920740;29;20397;-82
2021/06/29 06:32:17;;;;;;;3.20;2.40;;;26.90;56.70;;;;;;4919825;29;20428;-82
2021/06/29 06:34:48;;;;;;;2.33;2.13;;;26.90;56.70;;;;;;4922669;29;20464;-82
2021/06/29 06:37:20;;;;;;;2.00;1.90;;;26.90;56.70;;;;;;4919767;29;20435;-82
2021/06/29 06:39:49;;;;;;;2.83;2.10;;;27.00;56.70;;;;;;4920269;29;20435;-82
2021/06/29 06:42:18;;;;;;;2.27;2.07;;;26.90;56.60;;;;;;4904412;29;20452;-82
2021/06/29 06:44:55;;;;;;;2.30;2.10;;;26.90;56.70;;;;;;4919740;29;20421;-82
2021/06/29 06:47:33;;;;;;;2.50;2.30;;;26.90;56.70;;;;;;4920292;29;20412;-86
2021/06/29 06:50:01;;;;;;;2.50;2.30;;;26.90;56.70;;;;;;4917750;29;20405;-83
2021/06/29 06:52:35;;;;;;;3.30;2.00;;;26.90;56.70;;;;;;4918508;29;20431;-83
2021/06/29 06:58:25;;;;;;;2.47;2.27;;;27.00;56.80;;;;;;4919009;29;20381;-82
2021/06/29 07:00:53;;;;;;;2.60;2.00;;;27.00;56.80;;;;;;4917632;29;20413;-82
2021/06/29 07:03:25;;;;;;;2.33;2.17;;;27.10;56.90;;;;;;4917645;29;20417;-82
2021/06/29 07:06:15;;;;;;;2.20;2.00;;;27.10;56.80;;;;;;4917616;29;20421;-83
2021/06/29 07:08:43;;;;;;;2.30;2.10;;;27.10;56.90;;;;;;4918201;29;20912;-83
2021/06/29 07:14:35;;;;;;;2.40;2.13;;;27.10;56.90;;;;;;4917787;29;20472;-82
2021/06/29 07:17:04;;;;;;;2.50;2.17;;;27.10;56.90;;;;;;4917945;29;20420;-82
2021/06/29 07:19:40;;;;;;;2.20;2.00;;;27.20;56.90;;;;;;4916001;29;20797;-83
2021/06/29 07:22:08;;;;;;;2.70;2.50;;;27.10;56.90;;;;;;4918484;29;20391;-84
2021/06/29 07:24:35;;;;;;;1.93;1.80;;;27.20;57.60;;;;;;4902351;29;20440;-83
2021/06/29 07:27:13;;;;;;;2.20;2.10;;;27.20;56.90;;;;;;4918521;29;20477;-83
2021/06/29 07:29:57;;;;;;;3.30;2.40;;;27.30;57.00;;;;;;4917058;29;20428;-83
2021/06/29 07:32:27;;;;;;;2.20;2.10;;;27.20;57.00;;;;;;4918246;29;20411;-83
2021/06/29 07:35:00;;;;;;;2.30;1.93;;;27.20;56.80;;;;;;4932351;29;20578;-83
2021/06/29 07:37:39;;;;;;;2.27;2.07;;;27.30;57.00;;;;;;4903173;29;20422;-83
2021/06/29 07:40:15;;;;;;;2.60;2.40;;;27.30;57.00;;;;;;4883785;29;20421;-84
2021/06/29 07:43:11;;;;;;;3.00;2.50;;;27.30;57.00;;;;;;4897882;29;20938;-84
2021/06/29 07:45:47;;;;;;;2.10;1.93;;;27.30;57.00;;;;;;4898691;29;20425;-84
2021/06/29 07:48:25;;;;;;;2.77;2.50;;;27.30;57.00;;;;;;4899375;29;20420;-84
2021/06/29 07:50:56;;;;;;;2.30;2.10;;;27.30;57.00;;;;;;4899052;29;20422;-82
2021/06/29 07:53:37;;;;;;;2.50;2.30;;;27.30;57.00;;;;;;4884375;29;20421;-83
2021/06/29 07:56:06;;;;;;;2.90;2.70;;;27.30;56.80;;;;;;4898905;29;20485;-82
2021/06/29 07:58:37;;;;;;;2.63;2.40;;;27.30;56.90;;;;;;4900279;29;20434;-82
2021/06/29 08:01:03;;;;;;;3.90;2.10;;;27.30;56.90;;;;;;4899575;29;20418;-82
2021/06/29 08:03:32;;;;;;;2.27;2.00;;;27.30;56.80;;;;;;4898814;29;20425;-83
2021/06/29 08:06:14;;;;;;;2.40;2.20;;;27.40;56.90;;;;;;4899464;29;20418;-83
2021/06/29 08:08:42;;;;;;;3.37;2.17;;;27.30;56.80;;;;;;4900211;29;20417;-83
2021/06/29 08:11:20;;;;;;;2.20;2.00;;;27.40;56.90;;;;;;4899994;29;20448;-83
2021/06/29 08:13:47;;;;;;;2.50;2.30;;;27.30;56.80;;;;;;4898824;29;20479;-84
2021/06/29 08:16:22;;;;;;;2.30;2.10;;;27.40;56.90;;;;;;4914665;29;20436;-84
2021/06/29 08:18:49;;;;;;;2.30;2.10;;;27.40;56.80;;;;;;4898912;29;20437;-84
2021/06/29 08:21:38;;;;;;;2.37;2.17;;;27.40;56.90;;;;;;4899504;29;20835;-83
2021/06/29 08:24:05;;;;;;;2.33;2.13;;;27.50;56.90;;;;;;4913788;29;20421;-84
2021/06/29 08:26:34;;;;;;;2.73;2.50;;;27.40;56.80;;;;;;4897681;29;20847;-84
2021/06/29 08:29:05;;;;;;;3.97;2.03;;;27.50;56.90;;;;;;4898040;29;20425;-83
2021/06/29 08:31:50;;;;;;;2.67;2.47;;;27.50;56.80;;;;;;4896926;29;20462;-84
2021/06/29 08:34:21;;;;;;;2.67;2.47;;;27.40;56.70;;;;;;4898642;29;20457;-83
2021/06/29 08:36:51;;;;;;;3.33;3.00;;;27.50;56.80;;;;;;4897467;29;20424;-83
2021/06/29 08:39:44;;;;;;;3.20;2.60;;;27.40;56.70;;;;;;4897412;29;20429;-83
2021/06/29 08:59:15;;;;;;;3.00;2.37;;;27.40;56.80;;;;;;4859780;29;20424;-84
2021/06/29 09:01:52;;;;;;;3.23;2.50;;;27.40;56.90;;;;;;4859103;29;20435;-83
2021/06/29 09:11:49;;;;;;;2.47;2.27;;;27.40;56.80;;;;;;4787261;30;20509;-84
2021/06/29 09:14:21;;;;;;;3.40;2.80;;;27.40;56.80;;;;;;4747948;30;20463;-84
2021/06/29 09:16:48;;;;;;;3.60;2.63;;;27.40;56.80;;;;;;4803676;30;20419;-84
2021/06/29 09:23:31;;;;;;;3.23;2.53;;;27.50;56.90;;;;;;4804365;30;20446;-84
2021/06/29 09:26:32;;;;;;;4.70;2.90;;;27.50;56.90;;;;;;4804136;30;20442;-84
2021/06/29 09:29:01;;;;;;;3.07;2.77;;;27.50;56.90;;;;;;4804321;30;20426;-84
2021/06/29 09:35:09;;;;;;;2.83;2.63;;;27.50;56.90;;;;;;4802000;30;20500;-84
2021/06/29 09:37:52;;;;;;;2.77;2.57;;;27.50;56.80;;;;;;4789637;30;20515;-84
2021/06/29 09:40:24;;;;;;;3.00;2.70;;;27.50;56.80;;;;;;4805038;30;20414;-83
2021/06/29 09:43:09;;;;;;;2.50;2.30;;;27.50;56.80;;;;;;4807749;30;20525;-83
2021/06/29 09:46:02;;;;;;;2.90;2.70;;;27.50;56.80;;;;;;4914010;29;20460;-83
2021/06/29 09:48:53;;;;;;;2.80;2.60;;;27.50;56.80;;;;;;4914858;29;20451;-84
2021/06/29 09:51:34;;;;;;;;;;;;;;;;;;;;;
2021/06/29 09:54:42;;;;;;;3.20;2.90;;;27.50;56.80;;;;;;4902205;29;20504;-83
2021/06/29 10:07:25;;;;;;;3.27;2.97;;;27.50;56.80;;;;;;4826893;29;20406;-83
2021/06/29 10:10:19;;;;;;;2.93;2.47;;;27.50;56.80;;;;;;4826102;29;20482;-83
2021/06/29 10:13:31;;;;;;;3.33;2.53;;;27.60;56.80;;;;;;4810831;29;20434;-83
2021/06/29 10:16:01;;;;;;;2.63;2.43;;;27.60;56.80;;;;;;4811364;29;20425;-83
2021/06/29 10:25:16;;;;;;;3.00;2.80;;;27.60;56.70;;;;;;4809329;29;20436;-82
2021/06/29 10:27:55;;;;;;;3.20;2.60;;;27.50;56.80;;;;;;4809583;29;20426;-83
2021/06/29 10:30:29;;;;;;;3.30;3.10;;;27.60;56.70;;;;;;4811416;29;20453;-83
2021/06/29 10:33:01;;;;;;;5.13;3.20;;;27.60;56.70;;;;;;4825795;29;20425;-83
2021/06/29 10:35:36;;;;;;;2.70;2.50;;;27.60;56.70;;;;;;4825972;29;20469;-83
2021/06/29 10:45:32;;;;;;;2.37;2.17;;;27.60;56.60;;;;;;4863765;29;20456;-82
2021/06/29 10:48:34;;;;;;;3.03;2.73;;;27.60;56.60;;;;;;4863232;29;20396;-83
2021/06/29 10:51:59;;;;;;;3.00;2.63;;;27.60;56.60;;;;;;4863473;29;20430;-81
2021/06/29 11:08:28;;;;;;;2.53;2.33;;;27.50;56.50;;;;;;4760719;29;20406;-81
2021/06/29 11:11:07;;;;;;;2.80;2.60;;;27.60;56.50;;;;;;4703479;30;20434;-82
2021/06/29 11:14:03;;;;;;;3.43;3.23;;;27.60;56.50;;;;;;4690258;30;20462;-81
2021/06/29 11:23:47;;;;;;;2.60;2.40;;;27.60;56.30;;;;;;4661121;30;20430;-82
2021/06/29 11:26:22;;;;;;;2.50;2.30;;;27.60;56.30;;;;;;4652578;30;20446;-81
2021/06/29 11:28:52;;;;;;;3.07;2.77;;;27.50;56.20;;;;;;4674592;30;20443;-81
2021/06/29 11:31:31;;;;;;;2.80;2.60;;;27.60;56.20;;;;;;4683278;30;20456;-82
2021/06/29 11:34:08;;;;;;;4.77;3.40;;;27.60;56.20;;;;;;4696032;30;20489;-82
2021/06/29 11:36:37;;;;;;;4.90;4.50;;;27.60;56.10;;;;;;4737584;30;20434;-81
2021/06/29 11:39:15;;;;;;;7.03;5.13;;;27.60;56.10;;;;;;4737785;30;20473;-81
2021/06/29 11:42:01;;;;;;;6.63;5.90;;;27.60;56.20;;;;;;4787775;30;20426;-81
2021/06/29 11:44:33;;;;;;;10.13;7.37;;;27.60;56.20;;;;;;4808246;30;20429;-81
2021/06/29 11:47:11;;;;;;;13.30;8.27;;;27.60;56.20;;;;;;4837114;29;20431;-80
2021/06/29 11:49:58;;;;;;;13.77;10.10;;;27.60;56.70;;;;;;4846564;29;20458;-81
2021/06/29 11:52:46;;;;;;;12.17;9.03;;;27.60;56.20;;;;;;4846479;29;20407;-82
2021/06/29 11:55:29;;;;;;;13.37;8.97;;;27.60;56.20;;;;;;4861758;29;20496;-81
2021/06/29 11:58:04;;;;;;;12.10;8.77;;;27.60;56.20;;;;;;4861573;29;20396;-82
2021/06/29 12:00:34;;;;;;;13.53;9.17;;;27.50;56.10;;;;;;4847292;29;20797;-81
2021/06/29 12:03:15;;;;;;;10.13;7.80;;;27.50;56.20;;;;;;4866405;29;20418;-82
2021/06/29 12:26:48;;;;;;;8.30;7.03;;;27.50;56.20;;;;;;4919146;27;20470;-82
2021/06/29 12:29:38;;;;;;;9.30;6.43;;;27.50;56.20;;;;;;4930126;29;20403;-81
2021/06/29 12:32:23;;;;;;;8.87;6.67;;;27.50;56.20;;;;;;4924785;29;20439;-82
2021/06/29 12:35:11;;;;;;;7.73;5.80;;;27.40;56.20;;;;;;4939347;29;20557;-82
2021/06/29 12:38:06;;;;;;;7.87;6.20;;;27.40;56.20;;;;;;4939051;29;20426;-81
2021/06/29 12:40:40;;;;;;;6.03;5.00;;;27.50;56.30;;;;;;4938891;29;20471;-83
2021/06/29 12:43:34;;;;;;;7.40;5.20;;;27.40;56.20;;;;;;4878444;29;20486;-83
2021/06/29 12:46:31;;;;;;;7.17;5.60;;;27.40;56.20;;;;;;4879088;29;20442;-83
2021/06/29 12:49:20;;;;;;;17.03;5.10;;;27.40;56.20;;;;;;4866236;29;21036;-83
2021/06/29 12:51:47;;;;;;;9.70;4.70;;;27.40;56.20;;;;;;4879291;29;20482;-82
2021/06/29 12:54:26;;;;;;;7.97;5.30;;;27.40;56.30;;;;;;4863145;29;20474;-83
2021/06/29 13:29:09;;;;;;;3.23;2.90;;;27.30;56.20;;;;;;4911283;29;20543;-84
2021/06/29 13:35:39;;;;;;;3.80;3.30;;;27.30;56.20;;;;;;4899446;29;20461;-83
2021/06/29 13:38:19;;;;;;;3.50;3.10;;;27.30;56.30;;;;;;4858083;29;20442;-82
2021/06/29 13:40:55;;;;;;;3.53;3.23;;;27.30;56.20;;;;;;4900778;29;20433;-83
2021/06/29 13:43:26;;;;;;;3.43;3.13;;;27.30;56.20;;;;;;4901810;29;20414;-83
2021/06/29 13:46:17;;;;;;;3.37;3.00;;;27.30;56.20;;;;;;4900534;29;20406;-84
2021/06/29 13:48:57;;;;;;;3.37;3.13;;;27.30;56.10;;;;;;4885474;29;20433;-83
2021/06/29 13:51:35;;;;;;;3.67;3.30;;;27.30;56.10;;;;;;4883802;29;20434;-83
2021/06/29 13:54:26;;;;;;;3.73;3.33;;;27.30;56.10;;;;;;4883824;29;20465;-83
2021/06/29 13:57:40;;;;;;;3.90;3.50;;;27.40;56.20;;;;;;4896887;29;20402;-84
2021/06/29 14:00:30;;;;;;;2.70;2.47;;;27.30;56.10;;;;;;4824076;29;20413;-81
2021/06/29 14:03:24;;;;;;;3.80;3.50;;;27.30;56.10;;;;;;4812045;29;20572;-86
2021/06/29 14:06:04;;;;;;;3.47;3.17;;;27.30;56.10;;;;;;4838005;29;20427;-83
2021/06/29 14:09:08;;;;;;;4.40;2.60;;;27.30;56.10;;;;;;4837691;29;20453;-84
2021/06/29 14:11:45;;;;;;;3.37;3.07;;;27.30;56.10;;;;;;4839218;29;20982;-83
2021/06/29 14:14:16;;;;;;;3.00;2.80;;;27.30;56.10;;;;;;4837434;29;20474;-83
2021/06/29 14:20:12;;;;;;;6.33;2.80;;;27.30;56.10;;;;;;4898915;29;20477;-82
2021/06/29 14:22:39;;;;;;;4.00;3.00;;;27.40;56.10;;;;;;4883949;29;20421;-82
2021/06/29 14:25:24;;;;;;;3.20;2.60;;;27.40;56.10;;;;;;4866701;29;20421;-83
2021/06/29 14:28:04;;;;;;;2.83;2.60;;;27.40;56.00;;;;;;4896890;29;20488;-85
2021/06/29 14:30:44;;;;;;;2.50;2.30;;;27.40;56.00;;;;;;4901987;29;20421;-82
2021/06/29 14:39:32;;;;;;;3.47;3.00;;;27.50;56.10;;;;;;4904481;29;20401;-82
2021/06/29 14:42:11;;;;;;;3.73;2.50;;;27.50;56.10;;;;;;4903135;29;20416;-82
2021/06/29 14:44:41;;;;;;;2.50;2.30;;;27.50;56.10;;;;;;4873640;29;20439;-82
2021/06/29 14:47:10;;;;;;;2.70;2.37;;;27.50;56.20;;;;;;4903241;29;20441;-82
2021/06/29 14:49:36;;;;;;;3.67;2.80;;;27.50;56.10;;;;;;4887551;29;20519;-82
2021/06/29 14:55:32;;;;;;;2.60;2.40;;;27.60;56.10;;;;;;4903350;29;20216;-81
2021/06/29 14:58:02;;;;;;;3.57;2.60;;;27.60;56.20;;;;;;4889075;29;20417;-81
2021/06/29 15:00:36;;;;;;;2.97;2.67;;;27.60;56.20;;;;;;4888523;29;20556;-80
2021/06/29 15:06:26;;;;;;;2.80;2.47;;;27.60;56.10;;;;;;4902754;29;20503;-81
2021/06/29 15:08:55;;;;;;;2.60;2.40;;;27.60;56.10;;;;;;4902507;29;20426;-81
2021/06/29 15:11:31;;;;;;;2.50;2.30;;;27.60;56.10;;;;;;4886938;29;20489;-81
2021/06/29 15:14:55;;;;;;;2.40;2.20;;;27.60;56.10;;;;;;4932608;29;20471;-81
2021/06/29 15:17:25;;;;;;;2.10;1.90;;;27.60;56.00;;;;;;4956687;29;20424;-81
2021/06/29 15:19:51;;;;;;;3.00;2.27;;;27.60;56.10;;;;;;4940840;29;20450;-81
2021/06/29 15:22:31;;;;;;;2.90;2.40;;;27.60;56.10;;;;;;4940833;29;20408;-81
2021/06/29 15:25:07;;;;;;;2.13;1.90;;;27.70;56.20;;;;;;4957420;29;20399;-81
2021/06/29 15:27:40;;;;;;;2.73;2.23;;;27.70;56.70;;;;;;4941998;29;20411;-80
2021/06/29 15:30:15;;;;;;;2.37;2.10;;;27.70;56.20;;;;;;4920027;29;20423;-81
2021/06/29 15:33:05;;;;;;;2.97;2.27;;;27.70;56.20;;;;;;4941940;29;20400;-81
2021/06/29 15:51:46;;;;;;;2.47;2.03;;;27.70;56.10;;;;;;4901861;29;20410;-81
2021/06/29 15:54:15;;;;;;;2.23;2.03;;;27.70;56.20;;;;;;4884879;29;20476;-81
2021/06/29 15:56:44;;;;;;;4.13;2.30;;;27.70;56.10;;;;;;4868765;29;20425;-81
2021/06/29 15:59:18;;;;;;;2.63;2.43;;;27.70;56.10;;;;;;4884759;29;20433;-81
2021/06/29 16:15:53;;;;;;;1.77;1.67;;;27.70;56.00;;;;;;4773446;29;20477;-82
2021/06/29 16:22:20;;;;;;;2.77;2.20;;;27.70;55.90;;;;;;4737238;30;20517;-83
2021/06/29 16:28:56;;;;;;;1.67;1.57;;;27.70;55.80;;;;;;4736740;30;20437;-83
2021/06/29 16:32:17;;;;;;;2.07;1.63;;;27.70;55.80;;;;;;4735528;30;21103;-84
2021/06/29 16:45:48;;;;;;;;;;;;;;;;;;;;;
2021/06/29 16:55:13;;;;;;;1.43;1.33;;;27.70;55.40;;;;;;4796739;29;20503;-83
2021/06/29 16:57:39;;;;;;;1.97;1.50;;;27.70;55.40;;;;;;4790257;30;20430;-82
2021/06/29 17:00:18;;;;;;;2.27;1.27;;;27.70;55.40;;;;;;4804893;30;20422;-82
2021/06/29 17:02:57;;;;;;;2.60;1.20;;;27.70;55.40;;;;;;4822863;29;20426;-81
2021/06/29 17:05:37;;;;;;;1.20;1.03;;;27.70;55.90;;;;;;4809852;29;20434;-83
2021/06/29 17:08:30;;;;;;;;;;;;;;;;;;;;;
2021/06/29 17:10:56;;;;;;;1.10;0.90;;;27.70;55.30;;;;;;4823341;29;20449;-81
2021/06/29 17:13:28;;;;;;;1.60;1.10;;;27.70;55.20;;;;;;4807978;29;20436;-80
2021/06/29 17:15:57;;;;;;;1.20;0.90;;;27.70;55.20;;;;;;4874399;29;20470;-81
2021/06/29 17:18:54;;;;;;;;;;;;;;;;;;;;;
2021/06/29 17:21:32;;;;;;;1.53;1.43;;;27.70;55.20;;;;;;4877635;29;20453;-83
2021/06/29 17:34:51;;;;;;;;;;;;;;;;;;;;;
2021/06/29 17:40:48;;;;;;;1.30;0.80;;;27.60;55.20;;;;;;4878188;29;20436;-85
2021/06/29 17:43:27;;;;;;;;;;;;;;;;;;;;;
2021/06/29 17:46:04;;;;;;;1.73;0.83;;;27.60;55.10;;;;;;4879196;29;20458;-81
2021/06/29 17:48:55;;;;;;;1.00;0.80;;;27.70;55.10;;;;;;4877237;29;20442;-87
2021/06/29 17:51:33;;;;;;;0.90;0.73;;;27.70;55.10;;;;;;4861030;29;20437;-82
2021/06/29 18:05:19;;;;;;;1.30;0.90;;;27.60;55.00;;;;;;4823118;29;20400;-81
2021/06/29 18:07:57;;;;;;;1.97;1.00;;;27.60;55.10;;;;;;4817874;29;20529;-81
2021/06/29 18:10:38;;;;;;;2.40;1.00;;;27.60;55.10;;;;;;4826405;29;20417;-81
2021/06/29 18:13:29;;;;;;;2.40;1.00;;;27.60;55.10;;;;;;4827086;29;20435;-81
2021/06/29 18:16:21;;;;;;;1.50;0.77;;;27.60;55.00;;;;;;4825280;29;20468;-80
2021/06/29 18:19:00;;;;;;;1.93;1.10;;;27.60;55.00;;;;;;4827175;29;20496;-82